createdAt,value
2023-03-31T00:00:23.915Z,72.07
2023-03-31T00:05:48.028Z,72.06
2023-03-31T00:11:10.038Z,72.28
2023-03-31T00:16:31.833Z,74.52
2023-03-31T00:21:54.493Z,74.76
2023-03-31T00:27:16.575Z,74.63
2023-03-31T00:32:38.429Z,73.69
2023-03-31T00:38:00.221Z,73.94
2023-03-31T00:43:34.116Z,73.31
2023-03-31T00:48:57.989Z,73.24
2023-03-31T00:54:21.502Z,73.60
2023-03-31T00:59:58.891Z,73.74
2023-03-31T01:05:25.927Z,73.07
2023-03-31T01:10:52.040Z,71.46
2023-03-31T01:16:13.807Z,72.25
2023-03-31T01:22:13.149Z,71.26
2023-03-31T01:28:01.715Z,70.37
2023-03-31T01:33:46.786Z,71.94
2023-03-31T01:39:14.203Z,72.62
2023-03-31T01:44:57.055Z,73.02
2023-03-31T01:50:27.789Z,72.38
2023-03-31T01:56:18.534Z,71.16
2023-03-31T02:01:56.280Z,69.83
2023-03-31T02:07:27.570Z,69.90
2023-03-31T02:12:51.563Z,69.61
2023-03-31T02:18:18.572Z,70.18
2023-03-31T02:23:41.166Z,73.27
2023-03-31T02:29:03.300Z,73.25
2023-03-31T02:34:25.090Z,78.75
2023-03-31T02:39:50.372Z,78.92
2023-03-31T02:45:47.545Z,76.25
2023-03-31T02:51:09.411Z,76.99
2023-03-31T02:56:58.605Z,77.40
2023-03-31T03:02:42.062Z,72.79
2023-03-31T03:08:18.064Z,75.24
2023-03-31T03:13:51.781Z,74.94
2023-03-31T03:19:20.491Z,73.60
2023-03-31T03:24:42.585Z,73.33
2023-03-31T03:30:06.982Z,74.65
2023-03-31T03:35:28.998Z,74.48
2023-03-31T03:40:53.910Z,74.83
2023-03-31T03:46:15.809Z,74.86
2023-03-31T03:51:37.603Z,76.18
2023-03-31T03:56:59.480Z,75.29
2023-03-31T04:02:21.352Z,76.48
2023-03-31T04:07:43.178Z,75.51
2023-03-31T04:13:04.930Z,76.63
2023-03-31T04:18:26.696Z,76.36
2023-03-31T04:23:50.282Z,76.09
2023-03-31T04:29:13.925Z,76.05
2023-03-31T04:34:36.041Z,77.08
2023-03-31T04:39:59.321Z,75.31
2023-03-31T04:45:21.126Z,75.25
2023-03-31T04:50:42.943Z,74.44
2023-03-31T04:56:06.007Z,76.76
2023-03-31T05:01:28.001Z,76.63
2023-03-31T05:06:50.357Z,77.18
2023-03-31T05:12:12.089Z,77.27
2023-03-31T05:17:35.596Z,80.29
2023-03-31T05:22:57.368Z,83.17
2023-03-31T05:28:19.106Z,87.01
2023-03-31T05:33:42.000Z,90.23
2023-03-31T05:39:06.190Z,92.25
2023-03-31T05:44:27.910Z,94.23
2023-03-31T05:49:49.651Z,95.76
2023-03-31T05:55:11.542Z,96.22
2023-03-31T06:00:33.260Z,94.63
2023-03-31T06:05:55.750Z,96.67
2023-03-31T06:11:20.498Z,98.75
2023-03-31T06:16:42.370Z,100.00
2023-03-31T06:22:04.244Z,100.00
2023-03-31T06:27:26.079Z,100.00
2023-03-31T06:32:47.856Z,100.00
2023-03-31T06:38:09.661Z,100.00
2023-03-31T06:43:31.419Z,100.00
2023-03-31T06:48:54.329Z,100.00
2023-03-31T06:54:16.066Z,100.00
2023-03-31T06:59:37.804Z,100.00
2023-03-31T07:04:59.779Z,100.00
2023-03-31T07:10:23.019Z,100.00
2023-03-31T07:15:48.194Z,100.00
2023-03-31T07:21:10.333Z,100.00
2023-03-31T07:26:32.482Z,98.27
2023-03-31T07:31:54.260Z,97.97
2023-03-31T07:37:16.085Z,95.94
2023-03-31T07:42:38.059Z,95.77
2023-03-31T07:48:00.296Z,96.11
2023-03-31T07:53:22.172Z,95.64
2023-03-31T07:58:44.258Z,93.49
2023-03-31T08:04:06.092Z,92.77
2023-03-31T08:09:27.889Z,90.46
2023-03-31T08:14:49.614Z,90.15
2023-03-31T08:20:12.027Z,91.66
2023-03-31T08:25:33.734Z,91.73
2023-03-31T08:30:56.152Z,89.53
2023-03-31T08:36:17.953Z,91.58
2023-03-31T08:42:00.781Z,88.44
2023-03-31T08:47:26.725Z,88.11
2023-03-31T08:52:54.983Z,86.11
2023-03-31T08:58:43.362Z,84.96
2023-03-31T09:04:29.824Z,82.46
2023-03-31T09:10:20.189Z,80.89
2023-03-31T09:16:05.480Z,78.12
2023-03-31T09:21:51.937Z,73.41
2023-03-31T09:27:15.008Z,72.42
2023-03-31T09:32:39.250Z,71.13
2023-03-31T09:38:01.455Z,69.82
2023-03-31T09:43:26.963Z,68.44
2023-03-31T09:48:55.104Z,68.48
2023-03-31T09:54:25.838Z,66.37
2023-03-31T09:59:51.631Z,64.79
2023-03-31T10:05:22.637Z,63.41
2023-03-31T10:10:48.152Z,61.64
2023-03-31T10:16:15.101Z,59.15
2023-03-31T10:21:38.652Z,59.69
2023-03-31T10:27:00.522Z,58.97
2023-03-31T10:32:28.761Z,56.42
2023-03-31T10:37:57.165Z,56.62
2023-03-31T10:43:21.871Z,55.10
2023-03-31T10:48:45.059Z,53.56
2023-03-31T10:54:09.075Z,52.30
2023-03-31T10:59:41.693Z,53.79
2023-03-31T11:05:15.454Z,51.83
2023-03-31T11:10:41.930Z,52.23
2023-03-31T11:16:39.343Z,51.91
2023-03-31T11:22:19.451Z,57.05
2023-03-31T11:28:18.220Z,70.35
2023-03-31T11:34:06.254Z,71.65
2023-03-31T11:39:46.064Z,73.31
2023-03-31T11:45:22.616Z,72.94
2023-03-31T11:50:47.281Z,72.13
2023-03-31T11:56:12.192Z,71.26
2023-03-31T12:01:44.551Z,72.36
2023-03-31T12:07:29.487Z,71.18
2023-03-31T12:13:03.201Z,68.43
2023-03-31T12:18:28.306Z,67.99
2023-03-31T12:23:50.240Z,66.02
2023-03-31T12:29:32.976Z,65.78
2023-03-31T12:35:02.129Z,63.60
2023-03-31T12:40:41.751Z,60.87
2023-03-31T12:46:18.679Z,61.50
2023-03-31T12:52:04.293Z,59.95
2023-03-31T12:57:26.879Z,59.77
2023-03-31T13:02:50.147Z,60.02
2023-03-31T13:08:50.626Z,59.94
2023-03-31T13:14:28.744Z,56.70
2023-03-31T13:19:51.712Z,63.04
2023-03-31T13:25:35.526Z,65.42
2023-03-31T13:31:09.400Z,67.51
2023-03-31T13:36:34.476Z,70.64
2023-03-31T13:42:36.229Z,70.25
2023-03-31T13:48:14.940Z,69.67
2023-03-31T13:53:45.504Z,70.59
2023-03-31T13:59:14.962Z,72.36
2023-03-31T14:04:54.824Z,72.86
2023-03-31T14:10:49.324Z,74.36
2023-03-31T14:16:14.188Z,75.96
2023-03-31T14:21:59.646Z,74.08
2023-03-31T14:27:50.410Z,70.90
2023-03-31T14:33:26.886Z,69.05
2023-03-31T14:38:48.709Z,68.75
2023-03-31T14:44:15.900Z,68.29
2023-03-31T14:49:39.114Z,66.36
2023-03-31T14:55:01.329Z,65.99
2023-03-31T15:00:30.725Z,63.19
2023-03-31T15:05:57.462Z,65.46
2023-03-31T15:11:21.935Z,65.60
2023-03-31T15:16:45.186Z,65.43
2023-03-31T15:22:18.980Z,64.61
2023-03-31T15:27:45.181Z,63.56
2023-03-31T15:38:59.052Z,63.08
2023-03-31T15:44:43.573Z,63.54
2023-03-31T15:50:08.203Z,64.13
2023-03-31T15:55:39.250Z,64.80
2023-03-31T16:01:05.593Z,63.93
2023-03-31T16:06:43.869Z,63.16
2023-03-31T16:12:14.855Z,62.06
2023-03-31T16:17:42.999Z,62.84
2023-03-31T16:23:16.271Z,63.38
2023-03-31T16:28:38.528Z,61.85
2023-03-31T16:34:01.161Z,62.09
2023-03-31T16:39:22.869Z,63.91
2023-03-31T16:44:52.904Z,64.42
2023-03-31T16:50:22.386Z,64.81
2023-03-31T16:55:44.511Z,63.71
2023-03-31T17:01:07.805Z,64.61
2023-03-31T17:06:29.606Z,64.74
2023-03-31T17:11:51.398Z,66.03
2023-03-31T17:17:14.756Z,66.41
2023-03-31T17:22:38.456Z,65.88
2023-03-31T17:28:01.878Z,67.70
2023-03-31T17:33:23.727Z,67.05
2023-03-31T17:38:45.555Z,67.86
2023-03-31T17:44:08.719Z,67.35
2023-03-31T17:49:30.691Z,68.37
2023-03-31T17:54:53.297Z,67.96
2023-03-31T18:00:16.535Z,69.42
2023-03-31T18:05:39.274Z,70.81
2023-03-31T18:11:02.842Z,72.15
2023-03-31T18:16:24.806Z,76.35
2023-03-31T18:21:46.680Z,77.95
2023-03-31T18:27:08.537Z,83.62
2023-03-31T18:32:30.835Z,84.21
2023-03-31T18:37:53.426Z,83.82
2023-03-31T18:43:15.507Z,80.57
2023-03-31T18:48:38.437Z,81.54
2023-03-31T18:54:00.207Z,80.72
2023-03-31T18:59:22.002Z,78.40
2023-03-31T19:04:48.024Z,77.18
2023-03-31T19:10:10.214Z,76.95
2023-03-31T19:15:33.182Z,78.04
2023-03-31T19:20:55.572Z,77.15
2023-03-31T19:26:19.466Z,77.03
2023-03-31T19:31:41.516Z,76.11
2023-03-31T19:37:03.860Z,75.45
2023-03-31T19:42:25.687Z,76.50
2023-03-31T19:47:47.589Z,75.65
2023-03-31T19:53:09.402Z,75.85
2023-03-31T19:58:35.068Z,75.24
2023-03-31T20:03:57.175Z,74.01
2023-03-31T20:09:19.169Z,75.64
2023-03-31T20:14:40.984Z,74.00
2023-03-31T20:20:03.130Z,73.94
2023-03-31T20:25:24.910Z,74.65
2023-03-31T20:30:46.648Z,74.14
2023-03-31T20:36:11.377Z,75.08
2023-03-31T20:41:35.173Z,75.01
2023-03-31T20:46:59.025Z,75.66
2023-03-31T20:52:20.924Z,75.50
2023-03-31T20:57:42.666Z,75.91
2023-03-31T21:03:04.537Z,76.88
2023-03-31T21:08:26.344Z,76.18
2023-03-31T21:13:48.763Z,74.91
2023-03-31T21:19:11.067Z,75.79
2023-03-31T21:24:32.832Z,73.95
2023-03-31T21:29:54.786Z,74.41
2023-03-31T21:35:17.818Z,74.73
2023-03-31T21:40:39.610Z,74.37
2023-03-31T21:46:01.998Z,76.86
2023-03-31T21:51:24.759Z,77.28
2023-03-31T21:56:46.571Z,78.17
2023-03-31T22:02:08.378Z,78.44
2023-03-31T22:07:30.536Z,79.33
2023-03-31T22:12:52.343Z,77.84
2023-03-31T22:18:14.239Z,77.89
2023-03-31T22:23:36.137Z,77.18
2023-03-31T22:28:58.156Z,78.05
2023-03-31T22:34:19.993Z,78.00
2023-03-31T22:39:42.469Z,77.71
2023-03-31T22:45:04.655Z,76.87
2023-03-31T22:50:27.207Z,75.36
2023-03-31T22:55:53.815Z,75.33
2023-03-31T23:01:19.352Z,75.24
2023-03-31T23:06:41.156Z,76.08
2023-03-31T23:12:03.023Z,75.34
2023-03-31T23:17:24.792Z,75.97
2023-03-31T23:22:46.588Z,76.74
2023-03-31T23:28:08.447Z,76.31
2023-03-31T23:33:30.565Z,76.96
2023-03-31T23:38:54.106Z,76.45
2023-03-31T23:44:16.701Z,76.92
2023-03-31T23:49:38.441Z,77.74
2023-03-31T23:55:00.343Z,76.24
